• Join FlightAware (Why Join?)
  • Login
  • US Flag 
04:29PM EDT


 

Airport Tracker/Info


-or-


 

Live Flight TrackerFlight Track Log ✈ ASQ6151 ✈ 07-May-2013 ✈ KORD - KPIA

Flight Track Log - Related Links

Times and Time Zones

All times are in EDT time to prevent confusion due to time zone crossing. See the ASQ6151 flight status page for this flight to view local times or setup timezone preferences in your user account.

Time Position Orientation Groundspeed Altitude Reporting Facility
EDT Latitude Longitude Course Direction KTS MPH feet Rate Location/Type
10:24PM 41.9667 -88.2880 270° West  Level FlightAware Approximate
10:25PM 41.9667 -88.4174 270° West  Level FlightAware Approximate
10:26PM 41.9667 -88.5467 270° West  Level FlightAware Approximate
10:27PM 41.9667 -88.6761 270° West  Level FlightAware Approximate
10:28PM 41.9667 -88.8054 270° West  Level FlightAware Approximate
10:29PM 41.9260 -88.9073 217° Southwest  Level FlightAware Approximate
10:30PM 41.8473 -88.9814 213° Southwest  Level FlightAware Approximate
10:31PM 41.7665 -89.0515 213° Southwest  Level FlightAware Approximate
10:32PM 41.6858 -89.1214 213° Southwest  Level FlightAware Approximate
10:33PM 41.6047 -89.1906 212° Southwest  Level FlightAware Approximate
10:34PM 41.5236 -89.2597 217° Southwest  Level FlightAware Approximate
10:35PM 41.4431 -89.3298 213° Southwest  Level FlightAware Approximate
10:36PM 41.3625 -89.3996 210° Southwest  Level FlightAware Approximate
10:37PM 41.2794 -89.4642 210° Southwest  Level FlightAware Approximate
10:38PM 41.1992 -89.5342 217° Southwest  Level FlightAware Approximate
10:39PM 41.1155 -89.5883 186° South  Level FlightAware Approximate
10:40PM 41.0226 -89.6108 217° Southwest  Level FlightAware Approximate
10:41PM 40.9283 -89.6277 185° South  Level FlightAware Approximate
10:42PM 40.8338 -89.6498 194° South  Level FlightAware Approximate
10:43PM 40.7384 -89.6623 189° South  Level FlightAware Approximate
10:44PM 40.6642 -89.6933 191° South  Level Estimated
10:45PM 40.6642 -89.6933 191° South  Level Estimated
10:46PM 40.6642 -89.6933 191° South  Level Estimated
10:47PM 40.6642 -89.6933 191° South  Level Estimated
10:48PM 40.6642 -89.6933 191° South  Level Estimated
10:49PM 40.6642 -89.6933 191° South  Level Estimated
10:50PM 40.6642 -89.6933 191° South  Level Estimated
10:51PM 40.6642 -89.6933 191° South  Level Estimated
10:52PM 40.6642 -89.6933 191° South  Level Estimated
10:53PM 40.6642 -89.6933 191° South  Level Estimated
10:54PM 40.6642 -89.6933 191° South  Level Estimated